createdAt,value
2023-05-06T00:00:58.717Z,100195.27
2023-05-06T00:03:28.819Z,100194.15
2023-05-06T00:05:58.882Z,100194.07
2023-05-06T00:08:28.783Z,100201.58
2023-05-06T00:10:58.880Z,100197.15
2023-05-06T00:13:29.249Z,100201.55
2023-05-06T00:15:59.241Z,100204.77
2023-05-06T00:18:30.571Z,100205.84
2023-05-06T00:21:00.652Z,100205.58
2023-05-06T00:23:30.779Z,100202.41
2023-05-06T00:26:01.093Z,100200.42
2023-05-06T00:28:30.924Z,100206.06
2023-05-06T00:31:00.821Z,100206.55
2023-05-06T00:33:30.920Z,100204.56
2023-05-06T00:36:00.958Z,100215.23
2023-05-06T00:38:30.996Z,100209.88
2023-05-06T00:41:03.369Z,100212.99
2023-05-06T00:43:33.295Z,100211.90
2023-05-06T00:46:03.371Z,100211.89
2023-05-06T00:48:33.632Z,100212.60
2023-05-06T00:51:04.396Z,100220.42
2023-05-06T00:53:34.877Z,100221.20
2023-05-06T00:56:05.496Z,100227.67
2023-05-06T00:58:35.681Z,100224.30
2023-05-06T01:01:05.843Z,100221.81
2023-05-06T01:03:36.125Z,100220.96
2023-05-06T01:06:11.886Z,100216.34
2023-05-06T01:08:47.831Z,100223.17
2023-05-06T01:11:19.759Z,100221.39
2023-05-06T01:13:52.637Z,100219.78
2023-05-06T01:16:22.906Z,100220.59
2023-05-06T01:18:53.334Z,100224.79
2023-05-06T01:21:24.236Z,100225.14
2023-05-06T01:23:56.672Z,100224.19
2023-05-06T01:26:27.207Z,100224.92
2023-05-06T01:28:57.568Z,100232.23
2023-05-06T01:31:30.150Z,100226.91
2023-05-06T01:34:08.969Z,100226.17
2023-05-06T01:36:41.321Z,100231.98
2023-05-06T01:39:15.393Z,100240.02
2023-05-06T01:41:45.892Z,100235.36
2023-05-06T01:44:17.341Z,100230.13
2023-05-06T01:46:47.520Z,100235.00
2023-05-06T01:49:17.516Z,100239.51
2023-05-06T01:51:50.407Z,100246.67
2023-05-06T01:54:20.823Z,100249.23
2023-05-06T01:56:50.867Z,100250.64
2023-05-06T01:59:20.981Z,100254.60
2023-05-06T02:01:51.210Z,100253.03
2023-05-06T02:04:21.733Z,100257.31
2023-05-06T02:06:52.091Z,100259.95
2023-05-06T02:09:22.687Z,100263.45
2023-05-06T02:11:58.071Z,100270.96
2023-05-06T02:14:28.262Z,100274.67
2023-05-06T02:16:58.803Z,100276.00
2023-05-06T02:19:28.886Z,100273.78
2023-05-06T02:21:58.807Z,100273.77
2023-05-06T02:24:29.294Z,100275.52
2023-05-06T02:26:59.201Z,100275.89
2023-05-06T02:29:30.821Z,100273.73
2023-05-06T02:32:00.817Z,100269.46
2023-05-06T02:34:30.991Z,100268.48
2023-05-06T02:37:01.479Z,100278.52
2023-05-06T02:39:31.946Z,100285.49
2023-05-06T02:42:03.869Z,100280.98
2023-05-06T02:44:33.783Z,100285.56
2023-05-06T02:47:03.786Z,100293.23
2023-05-06T02:49:33.692Z,100294.06
2023-05-06T02:52:03.747Z,100291.45
2023-05-06T02:54:33.991Z,100296.20
2023-05-06T02:57:03.969Z,100303.18
2023-05-06T02:59:34.814Z,100306.20
2023-05-06T03:02:04.681Z,100308.36
2023-05-06T03:04:34.823Z,100312.75
2023-05-06T03:07:04.877Z,100323.34
2023-05-06T03:09:34.808Z,100328.64
2023-05-06T03:12:05.041Z,100332.39
2023-05-06T03:14:35.629Z,100339.20
2023-05-06T03:17:06.003Z,100340.14
2023-05-06T03:19:38.900Z,100339.85
2023-05-06T03:22:10.047Z,100337.02
2023-05-06T03:24:41.949Z,100332.02
2023-05-06T03:27:12.432Z,100328.46
2023-05-06T03:29:42.781Z,100335.82
2023-05-06T03:32:13.248Z,100341.81
2023-05-06T03:34:45.791Z,100342.27
2023-05-06T03:37:19.619Z,100341.57
2023-05-06T03:39:52.872Z,100347.48
2023-05-06T03:42:23.463Z,100355.95
2023-05-06T03:44:54.970Z,100360.52
2023-05-06T03:47:25.746Z,100359.52
2023-05-06T03:49:55.961Z,100359.67
2023-05-06T03:52:26.163Z,100352.70
2023-05-06T03:54:56.726Z,100352.29
2023-05-06T03:57:27.446Z,100359.87
2023-05-06T03:59:57.352Z,100361.44
2023-05-06T04:02:29.322Z,100364.02
2023-05-06T04:04:59.978Z,100377.33
2023-05-06T04:07:31.815Z,100376.27
2023-05-06T04:10:01.676Z,100375.08
2023-05-06T04:12:32.570Z,100376.71
2023-05-06T04:15:03.253Z,100378.21
2023-05-06T04:17:34.534Z,100382.29
2023-05-06T04:20:07.059Z,100382.41
2023-05-06T04:22:38.392Z,100383.72
2023-05-06T04:25:10.985Z,100379.42
2023-05-06T04:27:41.776Z,100381.55
2023-05-06T04:30:13.680Z,100385.99
2023-05-06T04:32:44.167Z,100393.04
2023-05-06T04:35:15.117Z,100390.70
2023-05-06T04:37:45.255Z,100395.70
2023-05-06T04:40:23.702Z,100391.16
2023-05-06T04:42:55.027Z,100390.23
2023-05-06T04:45:29.874Z,100396.91
2023-05-06T04:48:00.499Z,100400.69
2023-05-06T04:50:30.468Z,100396.69
2023-05-06T04:53:01.250Z,100404.26
2023-05-06T04:55:33.394Z,100404.42
2023-05-06T04:58:03.791Z,100404.61
2023-05-06T05:00:34.020Z,100406.38
2023-05-06T05:03:04.088Z,100408.77
2023-05-06T05:05:34.792Z,100404.74
2023-05-06T05:08:05.200Z,100404.64
2023-05-06T05:10:36.698Z,100406.77
2023-05-06T05:13:07.694Z,100402.45
2023-05-06T05:15:39.328Z,100395.88
2023-05-06T05:18:09.804Z,100399.02
2023-05-06T05:20:39.807Z,100401.41
2023-05-06T05:23:11.460Z,100405.63
2023-05-06T05:25:41.610Z,100405.07
2023-05-06T05:28:11.994Z,100408.65
2023-05-06T05:30:42.128Z,100405.37
2023-05-06T05:33:12.495Z,100408.06
2023-05-06T05:35:43.008Z,100406.73
2023-05-06T05:38:14.334Z,100413.29
2023-05-06T05:40:44.264Z,100414.66
2023-05-06T05:43:14.388Z,100412.23
2023-05-06T05:45:44.455Z,100414.58
2023-05-06T05:48:14.827Z,100412.77
2023-05-06T05:50:44.757Z,100411.13
2023-05-06T05:53:16.586Z,100412.27
2023-05-06T05:55:46.711Z,100418.02
2023-05-06T05:58:17.786Z,100419.84
2023-05-06T06:00:47.800Z,100419.38
2023-05-06T06:03:19.173Z,100421.23
2023-05-06T06:05:49.545Z,100425.95
2023-05-06T06:08:19.845Z,100422.45
2023-05-06T06:10:50.082Z,100419.52
2023-05-06T06:13:25.349Z,100416.83
2023-05-06T06:15:57.283Z,100423.59
2023-05-06T06:18:27.463Z,100419.16
2023-05-06T06:20:57.477Z,100422.17
2023-05-06T06:23:27.588Z,100422.82
2023-05-06T06:25:57.497Z,100425.38
2023-05-06T06:28:27.930Z,100433.23
2023-05-06T06:30:57.936Z,100428.97
2023-05-06T06:33:28.830Z,100435.45
2023-05-06T06:35:58.750Z,100428.34
2023-05-06T06:38:28.727Z,100431.02
2023-05-06T06:40:58.710Z,100435.00
2023-05-06T06:43:28.888Z,100435.27
2023-05-06T06:46:04.133Z,100440.07
2023-05-06T06:48:34.163Z,100436.88
2023-05-06T06:51:04.241Z,100437.66
2023-05-06T06:53:34.373Z,100436.52
2023-05-06T06:56:04.253Z,100435.11
2023-05-06T06:58:36.013Z,100435.76
2023-05-06T07:01:06.077Z,100431.41
2023-05-06T07:03:35.983Z,100428.45
2023-05-06T07:06:05.935Z,100426.88
2023-05-06T07:08:36.078Z,100435.63
2023-05-06T07:11:06.137Z,100431.26
2023-05-06T07:13:36.372Z,100434.99
2023-05-06T07:16:06.806Z,100433.83
2023-05-06T07:18:37.352Z,100435.20
2023-05-06T07:21:07.458Z,100434.84
2023-05-06T07:23:38.799Z,100429.20
2023-05-06T07:26:08.779Z,100428.09
2023-05-06T07:28:38.674Z,100433.80
2023-05-06T07:31:08.516Z,100435.40
2023-05-06T07:33:38.622Z,100439.70
2023-05-06T07:36:09.425Z,100445.36
2023-05-06T07:38:39.490Z,100439.45
2023-05-06T07:41:09.334Z,100440.26
2023-05-06T07:43:39.946Z,100445.58
2023-05-06T07:46:09.791Z,100440.66
2023-05-06T07:48:40.266Z,100446.30
2023-05-06T07:51:10.143Z,100446.39
2023-05-06T07:53:40.465Z,100441.42
2023-05-06T07:56:10.498Z,100443.98
2023-05-06T07:58:40.690Z,100445.08
2023-05-06T08:01:11.451Z,100447.13
2023-05-06T08:03:41.442Z,100445.09
2023-05-06T08:06:11.500Z,100455.10
2023-05-06T08:08:41.676Z,100453.23
2023-05-06T08:11:11.577Z,100455.09
2023-05-06T08:13:42.506Z,100450.55
2023-05-06T08:16:12.696Z,100454.16
2023-05-06T08:18:42.900Z,100462.64
2023-05-06T08:21:12.723Z,100458.42
2023-05-06T08:23:42.865Z,100468.81
2023-05-06T08:26:13.097Z,100465.81
2023-05-06T08:28:42.961Z,100467.59
2023-05-06T08:31:13.198Z,100467.63
2023-05-06T08:33:43.440Z,100467.34
2023-05-06T08:36:13.490Z,100464.25
2023-05-06T08:38:49.040Z,100465.39
2023-05-06T08:41:19.587Z,100472.32
2023-05-06T08:43:50.654Z,100473.14
2023-05-06T08:46:20.681Z,100469.98
2023-05-06T08:48:51.030Z,100473.13
2023-05-06T08:51:20.858Z,100479.38
2023-05-06T08:53:51.947Z,100484.96
2023-05-06T08:56:22.059Z,100480.12
2023-05-06T08:58:52.294Z,100476.48
2023-05-06T09:01:22.504Z,100477.11
2023-05-06T09:03:52.549Z,100475.64
2023-05-06T09:06:22.483Z,100477.27
2023-05-06T09:08:52.829Z,100479.95
2023-05-06T09:11:27.914Z,100477.90
2023-05-06T09:14:12.576Z,100478.07
2023-05-06T09:16:43.858Z,100480.94
2023-05-06T09:19:15.313Z,100477.58
2023-05-06T09:21:46.076Z,100481.42
2023-05-06T09:24:16.783Z,100480.41
2023-05-06T09:26:46.973Z,100476.23
2023-05-06T09:29:19.698Z,100485.58
2023-05-06T09:31:51.188Z,100474.54
2023-05-06T09:34:22.736Z,100479.52
2023-05-06T09:36:54.055Z,100474.76
2023-05-06T09:39:27.840Z,100472.00
2023-05-06T09:41:57.771Z,100468.92
2023-05-06T09:44:28.061Z,100467.61
2023-05-06T09:46:58.144Z,100469.16
2023-05-06T09:49:28.620Z,100464.23
2023-05-06T09:51:59.107Z,100455.06
2023-05-06T09:54:28.959Z,100449.05
2023-05-06T09:57:00.967Z,100448.78
2023-05-06T09:59:31.296Z,100449.18
2023-05-06T10:02:01.477Z,100447.95
2023-05-06T10:04:31.697Z,100453.38
2023-05-06T10:07:01.960Z,100445.59
2023-05-06T10:09:32.055Z,100451.81
2023-05-06T10:12:02.357Z,100451.77
2023-05-06T10:14:32.569Z,100446.89
2023-05-06T10:17:03.262Z,100450.95
2023-05-06T10:19:34.911Z,100448.91
2023-05-06T10:22:09.440Z,100450.98
2023-05-06T10:24:45.436Z,100453.70
2023-05-06T10:27:15.257Z,100451.89
2023-05-06T10:29:45.380Z,100451.92
2023-05-06T10:32:15.512Z,100450.58
2023-05-06T10:34:55.156Z,100458.84
2023-05-06T10:37:26.196Z,100450.05
2023-05-06T10:39:56.642Z,100454.56
2023-05-06T10:42:32.683Z,100449.00
2023-05-06T10:45:06.411Z,100443.83
2023-05-06T10:53:57.273Z,100445.30
2023-05-06T10:56:27.406Z,100443.71
2023-05-06T10:58:57.679Z,100441.02
2023-05-06T11:01:29.295Z,100438.20
2023-05-06T11:04:00.713Z,100436.08
2023-05-06T11:06:50.708Z,100427.91
2023-05-06T11:09:21.388Z,100419.20
2023-05-06T11:12:02.919Z,100417.36
2023-05-06T11:14:35.865Z,100424.95
2023-05-06T11:17:06.397Z,100425.63
2023-05-06T11:19:37.629Z,100427.61
2023-05-06T11:22:07.945Z,100429.23
2023-05-06T11:24:41.766Z,100421.47
2023-05-06T11:27:12.579Z,100414.74
2023-05-06T11:29:44.630Z,100420.18
2023-05-06T11:32:21.928Z,100415.27
2023-05-06T11:34:52.359Z,100410.15
2023-05-06T11:37:27.485Z,100407.48
2023-05-06T11:39:57.632Z,100403.31
2023-05-06T11:42:28.780Z,100401.65
2023-05-06T11:45:02.362Z,100407.09
2023-05-06T11:47:33.041Z,100412.70
2023-05-06T11:50:07.576Z,100412.66
2023-05-06T11:52:38.107Z,100413.70
2023-05-06T11:55:12.370Z,100404.70
2023-05-06T11:57:46.206Z,100405.06
2023-05-06T12:00:18.773Z,100401.99
2023-05-06T12:02:49.310Z,100398.23
2023-05-06T12:05:19.464Z,100394.98
2023-05-06T12:07:49.459Z,100396.30
2023-05-06T12:10:20.341Z,100395.95
2023-05-06T12:12:50.702Z,100391.91
2023-05-06T12:15:20.550Z,100387.52
2023-05-06T12:17:50.657Z,100382.86
2023-05-06T12:20:22.467Z,100379.80
2023-05-06T12:23:07.931Z,100379.41
2023-05-06T12:25:38.281Z,100374.84
2023-05-06T12:28:16.175Z,100370.11
2023-05-06T12:30:46.427Z,100374.73
2023-05-06T12:33:17.384Z,100369.17
2023-05-06T12:35:47.401Z,100367.34
2023-05-06T12:38:18.167Z,100375.88
2023-05-06T12:40:54.730Z,100377.55
2023-05-06T12:43:30.952Z,100378.04
2023-05-06T12:46:07.583Z,100373.56
2023-05-06T12:48:38.131Z,100368.39
2023-05-06T12:51:20.263Z,100372.54
2023-05-06T12:53:50.360Z,100368.36
2023-05-06T12:56:21.799Z,100362.17
2023-05-06T12:59:01.564Z,100368.56
2023-05-06T13:01:31.996Z,100364.26
2023-05-06T13:04:02.449Z,100360.86
2023-05-06T13:06:32.913Z,100359.73
2023-05-06T13:09:02.935Z,100354.51
2023-05-06T13:11:33.149Z,100353.37
2023-05-06T13:14:03.047Z,100366.37
2023-05-06T13:16:33.200Z,100374.73
2023-05-06T13:19:04.890Z,100374.75
2023-05-06T13:21:35.783Z,100379.73
2023-05-06T13:32:32.736Z,100375.33
2023-05-06T13:35:23.624Z,100380.70
2023-05-06T13:37:53.587Z,100381.40
2023-05-06T13:40:23.727Z,100378.32
2023-05-06T13:42:55.507Z,100374.88
2023-05-06T13:45:26.083Z,100372.23
2023-05-06T13:47:56.334Z,100370.56
2023-05-06T13:50:26.464Z,100371.80
2023-05-06T13:52:56.676Z,100373.98
2023-05-06T13:55:26.735Z,100373.13
2023-05-06T13:57:56.606Z,100371.40
2023-05-06T14:00:26.883Z,100371.00
2023-05-06T14:02:56.984Z,100367.84
2023-05-06T14:05:27.311Z,100368.55
2023-05-06T14:07:57.582Z,100370.42
2023-05-06T14:10:28.180Z,100366.92
2023-05-06T14:12:58.548Z,100363.02
2023-05-06T14:15:28.533Z,100363.88
2023-05-06T14:17:58.987Z,100364.11
2023-05-06T14:31:08.960Z,100329.54
2023-05-06T14:33:40.633Z,100323.41
2023-05-06T14:36:10.825Z,100321.98
2023-05-06T14:38:41.074Z,100327.95
2023-05-06T14:41:11.141Z,100328.68
2023-05-06T14:43:40.962Z,100330.25
2023-05-06T14:46:11.380Z,100334.05
2023-05-06T14:48:41.548Z,100338.27
2023-05-06T14:51:11.440Z,100337.11
2023-05-06T14:53:41.542Z,100341.10
2023-05-06T14:56:11.689Z,100348.15
2023-05-06T14:58:42.894Z,100354.80
2023-05-06T15:01:13.698Z,100354.10
2023-05-06T15:03:45.303Z,100357.30
2023-05-06T15:06:15.171Z,100353.20
2023-05-06T15:08:46.017Z,100353.01
2023-05-06T15:11:15.905Z,100355.05
2023-05-06T15:13:45.874Z,100355.50
2023-05-06T15:16:15.914Z,100354.02
2023-05-06T15:18:46.287Z,100352.93
2023-05-06T15:21:17.541Z,100350.09
2023-05-06T15:37:03.152Z,100348.64
2023-05-06T15:39:38.810Z,100347.23
2023-05-06T15:42:09.947Z,100342.11
2023-05-06T15:44:40.090Z,100338.52
2023-05-06T15:47:10.401Z,100341.16
2023-05-06T15:52:13.779Z,100338.52
2023-05-06T15:54:49.369Z,100338.21
2023-05-06T15:57:20.116Z,100330.08
2023-05-06T15:59:49.989Z,100329.83
2023-05-06T16:04:53.429Z,100329.02
2023-05-06T16:07:23.464Z,100325.96
2023-05-06T16:09:53.770Z,100330.71
2023-05-06T16:12:24.739Z,100335.26
2023-05-06T16:14:54.785Z,100335.61
2023-05-06T16:17:24.906Z,100335.56
2023-05-06T16:19:55.273Z,100339.20
2023-05-06T16:22:25.330Z,100342.79
2023-05-06T16:24:55.374Z,100342.52
2023-05-06T16:27:28.776Z,100341.69
2023-05-06T16:29:59.033Z,100341.00
2023-05-06T16:32:29.552Z,100346.63
2023-05-06T16:34:59.598Z,100344.11
2023-05-06T16:37:29.433Z,100342.71
2023-05-06T16:39:59.270Z,100340.59
2023-05-06T16:42:29.176Z,100342.88
2023-05-06T16:44:59.068Z,100341.10
2023-05-06T16:47:29.490Z,100345.79
2023-05-06T16:49:59.549Z,100346.66
2023-05-06T16:52:30.843Z,100338.09
2023-05-06T16:55:00.914Z,100338.50
2023-05-06T16:57:31.396Z,100344.60
2023-05-06T17:00:02.109Z,100349.68
2023-05-06T17:02:33.296Z,100355.45
2023-05-06T17:05:03.347Z,100352.75
2023-05-06T17:07:33.531Z,100353.24
2023-05-06T17:10:03.725Z,100358.03
2023-05-06T17:12:34.602Z,100356.66
2023-05-06T17:15:05.309Z,100355.10
2023-05-06T17:17:35.843Z,100360.27
2023-05-06T17:20:07.157Z,100365.88
2023-05-06T17:22:37.664Z,100374.11
2023-05-06T17:25:08.922Z,100377.84
2023-05-06T17:27:39.000Z,100382.81
2023-05-06T17:30:10.362Z,100385.18
2023-05-06T17:32:40.879Z,100394.84
2023-05-06T17:35:12.044Z,100391.53
2023-05-06T17:37:42.225Z,100391.52
2023-05-06T17:40:15.112Z,100386.92
2023-05-06T17:42:45.512Z,100391.47
2023-05-06T17:45:15.841Z,100395.59
2023-05-06T17:47:45.794Z,100396.23
2023-05-06T17:50:15.998Z,100402.86
2023-05-06T17:52:48.850Z,100406.66
2023-05-06T17:55:21.527Z,100409.71
2023-05-06T17:57:52.824Z,100408.83
2023-05-06T18:00:23.420Z,100409.20
2023-05-06T18:02:53.724Z,100412.14
2023-05-06T18:05:25.685Z,100412.35
2023-05-06T18:07:55.621Z,100413.55
2023-05-06T18:10:25.889Z,100414.75
2023-05-06T18:12:57.387Z,100420.51
2023-05-06T18:15:30.453Z,100423.63
2023-05-06T18:18:01.015Z,100420.88
2023-05-06T18:20:31.144Z,100421.23
2023-05-06T18:23:01.147Z,100420.45
2023-05-06T18:25:31.358Z,100423.30
2023-05-06T18:28:01.422Z,100424.05
2023-05-06T18:30:31.236Z,100424.08
2023-05-06T18:33:01.126Z,100419.41
2023-05-06T18:35:37.225Z,100417.86
2023-05-06T18:38:07.699Z,100417.90
2023-05-06T18:40:38.092Z,100415.98
2023-05-06T18:43:08.495Z,100417.83
2023-05-06T18:45:38.412Z,100414.98
2023-05-06T18:48:12.060Z,100407.72
2023-05-06T18:50:45.358Z,100411.41
2023-05-06T18:53:15.412Z,100413.73
2023-05-06T18:55:45.578Z,100415.65
2023-05-06T18:58:16.295Z,100409.98
2023-05-06T19:00:46.722Z,100410.98
2023-05-06T19:03:16.999Z,100413.20
2023-05-06T19:05:46.837Z,100411.22
2023-05-06T19:08:17.295Z,100407.13
2023-05-06T19:10:47.450Z,100407.27
2023-05-06T19:13:17.706Z,100406.73
2023-05-06T19:15:48.000Z,100404.15
2023-05-06T19:18:18.276Z,100404.25
2023-05-06T19:20:48.431Z,100400.59
2023-05-06T19:23:20.042Z,100402.21
2023-05-06T19:37:49.067Z,100403.70
2023-05-06T19:40:22.798Z,100411.30
2023-05-06T19:42:53.872Z,100407.17
2023-05-06T19:45:23.762Z,100405.19
2023-05-06T19:47:53.903Z,100406.15
2023-05-06T20:06:04.882Z,100409.43
2023-05-06T20:08:35.492Z,100405.56
2023-05-06T20:11:06.016Z,100406.27
2023-05-06T20:13:36.370Z,100405.06
2023-05-06T20:16:06.842Z,100406.74
2023-05-06T20:18:37.282Z,100406.20
2023-05-06T20:21:07.478Z,100405.30
2023-05-06T20:23:37.375Z,100407.81
2023-05-06T20:26:07.424Z,100411.16
2023-05-06T20:28:39.255Z,100409.89
2023-05-06T20:31:09.268Z,100403.20
2023-05-06T20:44:18.021Z,100406.94
2023-05-06T20:46:47.915Z,100406.86
2023-05-06T20:49:18.308Z,100413.58
2023-05-06T20:51:48.312Z,100415.83
2023-05-06T20:54:18.210Z,100419.30
2023-05-06T20:56:48.538Z,100420.18
2023-05-06T20:59:21.568Z,100415.02
2023-05-06T21:01:52.067Z,100412.86
2023-05-06T21:04:22.565Z,100414.56
2023-05-06T21:06:52.671Z,100414.42
2023-05-06T21:09:23.041Z,100412.61
2023-05-06T21:11:53.225Z,100412.52
2023-05-06T21:14:24.855Z,100405.36
2023-05-06T21:16:55.381Z,100405.09
2023-05-06T21:19:25.634Z,100401.22
2023-05-06T21:21:56.766Z,100401.38
2023-05-06T21:24:26.903Z,100405.92
2023-05-06T21:26:56.948Z,100406.70
2023-05-06T21:29:27.015Z,100405.16
2023-05-06T21:31:57.984Z,100409.23
2023-05-06T21:34:28.012Z,100404.91
2023-05-06T21:36:58.252Z,100409.61
2023-05-06T21:39:28.472Z,100410.29
2023-05-06T21:41:58.546Z,100410.57
2023-05-06T21:44:28.798Z,100407.77
2023-05-06T21:46:58.964Z,100404.23
2023-05-06T21:49:29.014Z,100408.64
2023-05-06T21:51:59.034Z,100411.16
2023-05-06T21:54:31.605Z,100411.42
2023-05-06T21:57:01.467Z,100408.55
2023-05-06T21:59:31.777Z,100411.08
2023-05-06T22:02:03.044Z,100413.37
2023-05-06T22:04:33.373Z,100413.70
2023-05-06T22:07:03.715Z,100415.45
2023-05-06T22:09:34.153Z,100413.95
2023-05-06T22:12:06.907Z,100411.72
2023-05-06T22:14:40.949Z,100407.76
2023-05-06T22:17:12.500Z,100412.36
2023-05-06T22:19:42.531Z,100409.48
2023-05-06T22:22:13.088Z,100406.80
2023-05-06T22:24:42.968Z,100406.80
2023-05-06T22:27:13.257Z,100404.29
2023-05-06T22:29:43.173Z,100403.85
2023-05-06T22:32:13.406Z,100404.92
2023-05-06T22:34:43.569Z,100403.61
2023-05-06T22:37:14.008Z,100404.90
2023-05-06T22:39:44.329Z,100402.93
2023-05-06T22:42:14.409Z,100398.17
2023-05-06T22:44:44.443Z,100402.71
2023-05-06T22:47:14.473Z,100404.21
2023-05-06T22:49:44.436Z,100399.33
2023-05-06T22:52:14.311Z,100399.94
2023-05-06T22:54:44.154Z,100398.41
2023-05-06T22:57:14.554Z,100395.63
2023-05-06T22:59:44.471Z,100393.27
2023-05-06T23:02:14.435Z,100394.13
2023-05-06T23:04:46.485Z,100391.17
2023-05-06T23:07:16.554Z,100391.21
2023-05-06T23:09:46.848Z,100390.14
2023-05-06T23:12:16.909Z,100387.80
2023-05-06T23:14:46.810Z,100389.48
2023-05-06T23:17:17.268Z,100388.87
2023-05-06T23:19:47.284Z,100388.42
2023-05-06T23:22:17.173Z,100393.15
2023-05-06T23:24:46.990Z,100391.39
2023-05-06T23:27:16.882Z,100392.63
2023-05-06T23:29:46.767Z,100386.56
2023-05-06T23:32:16.688Z,100382.16
2023-05-06T23:34:46.715Z,100379.65
2023-05-06T23:37:17.660Z,100382.44
2023-05-06T23:39:47.697Z,100380.48
2023-05-06T23:42:17.707Z,100377.14
2023-05-06T23:44:48.237Z,100374.73
2023-05-06T23:47:18.449Z,100377.97
2023-05-06T23:49:48.308Z,100377.26
2023-05-06T23:52:18.526Z,100374.37
2023-05-06T23:54:48.715Z,100378.02
2023-05-06T23:57:18.539Z,100373.70
2023-05-06T23:59:48.746Z,100368.85
